Dickens, NE (69132)

3:35 AM CDT on August 30, 2016 (GMT -0500)
64V | | Change Station

Elev 3107 ft 40.83 °N, 101.17 °W | Updated 8 seconds ago

Light Rain
Light Rain
66.5 °F
Feels Like 66.5 °F
N
0.0
Wind Variable Wind from South
Gusts 1.0 mph

Today
High -- | Low -- °F
--% Chance of Precip.
Yesterday
High -- | Low -- °F
Precip. -- in
Pressure 30.15 in
Visibility 10.0 miles
Clouds Few 10000 ft
Scattered Clouds 12000 ft
Dew Point 65 °F
Humidity 95%
Rainfall 0.00 in
Snow Depth Not available.
7:09 AM 8:18 PM
Waning Crescent, 4% visible
METAR KLBF 300753Z AUTO 17004KT 10SM -RA FEW100 SCT120 20/19 A3023 RMK AO2 RAE12B47 SLP210 P0000 T02000189
Pressure 30.15 in
Visibility 10.0 miles
Clouds Few 10000 ft
Scattered Clouds 12000 ft
Dew Point 65 °F
Humidity 95%
Rainfall 0.00 in
Snow Depth Not available.
7:09 AM 8:18 PM
Waning Crescent, 4% visible
METAR KLBF 300753Z AUTO 17004KT 10SM -RA FEW100 SCT120 20/19 A3023 RMK AO2 RAE12B47 SLP210 P0000 T02000189

10-Day Weather Forecast

Almanac

Astronomy

Aug. 30, 2016 Rise Set
Actual Time
Civil Twilight
Nautical Twilight
Astronomical Twilight
Moon
Length of Visible Light
Length of Day
Tomorrow will be .
, % of the Moon is Illuminated

Today's Extremes

State Highs State Lows

Community

WunderPhotos

Upload Photos

1,935,795 photos uploaded!

WunderBlog® & News

Nearby

Air Quality

  Air Quality AQ Index Pollutant
Not available.

Snow Depth

Station Depth Elevation

Earthquake Activity

City Distance Mag. Time & Date
Minimum magnitude displayed is 2.5.

Coastal Water Temperatures

Place Temperature

Stations

Nearby Weather Stations

Station Location Temp. Windchill Dew Point Humidity Wind Precip. Elev Updated Type
                   

Watches & Warnings

There are currently no watches in effect.